Time;durP1;ratioP1;P1;durP2;ratioP2;P2;SDS_P1;SDS_P2;PMS_P1;PMS_P2;Temp;Humidity;BMP_temperature;BMP_pressure;BME280_temperature;BME280_humidity;BME280_pressure;Samples;Min_cycle;Max_cycle;Signal;HPM_P1;HPM_P2
2022/04/20 00:00:15;;;;;;;9.05;6.65;;;;;;;-140.79;100.00;63287.88;4989277;28;20088;-54
2022/04/20 00:02:41;;;;;;;9.48;6.90;;;;;;;-140.79;100.00;63287.88;4988921;28;20046;-54
2022/04/20 00:05:06;;;;;;;9.77;6.65;;;;;;;-140.79;100.00;63287.88;4988712;28;20049;-54
2022/04/20 00:07:33;;;;;;;9.00;6.18;;;;;;;-140.79;100.00;63287.88;4987773;28;20033;-55
2022/04/20 00:10:00;;;;;;;10.13;7.15;;;;;;;-140.79;100.00;63287.88;4989090;28;20061;-55
2022/04/20 00:12:26;;;;;;;8.90;6.10;;;;;;;-140.79;100.00;63287.88;4988529;28;20645;-54
2022/04/20 00:14:51;;;;;;;7.93;5.97;;;;;;;-140.79;100.00;63287.88;4988572;28;20113;-54
2022/04/20 00:17:17;;;;;;;8.57;6.18;;;;;;;-140.79;100.00;63287.88;4988486;28;20034;-54
2022/04/20 00:19:42;;;;;;;8.45;6.07;;;;;;;-140.79;100.00;63287.88;4989120;28;20089;-54
2022/04/20 00:22:08;;;;;;;9.13;6.20;;;;;;;-140.79;100.00;63287.88;4988839;28;20073;-54
2022/04/20 00:24:33;;;;;;;9.02;6.20;;;;;;;-140.79;100.00;63287.88;5003702;28;20449;-54
2022/04/20 00:26:59;;;;;;;8.45;6.00;;;;;;;-140.79;100.00;63287.88;4987979;28;20417;-55
2022/04/20 00:29:24;;;;;;;7.40;5.43;;;;;;;-140.79;100.00;63287.88;4988829;28;20026;-54
2022/04/20 00:31:50;;;;;;;8.25;5.95;;;;;;;-140.79;100.00;63287.88;4988651;28;20034;-54
2022/04/20 00:34:15;;;;;;;8.52;5.95;;;;;;;-140.79;100.00;63287.88;4988554;28;20033;-54
2022/04/20 00:36:41;;;;;;;7.63;5.78;;;;;;;-140.79;100.00;63287.88;4988651;28;20030;-55
2022/04/20 00:39:06;;;;;;;8.38;5.60;;;;;;;-140.79;100.00;63287.88;5007738;28;20029;-55
2022/04/20 00:41:32;;;;;;;8.73;5.75;;;;;;;-140.79;100.00;63287.88;5007983;28;20038;-54
2022/04/20 00:43:58;;;;;;;8.73;6.40;;;;;;;-140.79;100.00;63287.88;5006419;28;20040;-54
2022/04/20 00:46:24;;;;;;;8.15;5.80;;;;;;;-140.79;100.00;63287.88;5007425;28;20061;-54
2022/04/20 00:48:50;;;;;;;7.28;5.57;;;;;;;-140.79;100.00;63287.88;4989850;28;20043;-54
2022/04/20 00:51:16;;;;;;;7.32;5.53;;;;;;;-140.79;100.00;63287.88;5002681;28;20042;-54
2022/04/20 00:53:41;;;;;;;8.43;5.63;;;;;;;-140.79;100.00;63287.88;4987966;28;20038;-55
2022/04/20 00:56:07;;;;;;;7.72;5.50;;;;;;;-140.79;100.00;63287.88;4988253;28;20026;-54
2022/04/20 00:58:32;;;;;;;7.22;5.32;;;;;;;-140.79;100.00;63287.88;5003075;28;20045;-54
2022/04/20 01:00:58;;;;;;;8.00;5.57;;;;;;;-140.79;100.00;63287.88;5006063;28;20089;-54
2022/04/20 01:03:24;;;;;;;8.07;5.65;;;;;;;-140.79;100.00;63287.88;5007644;28;20049;-54
2022/04/20 01:05:50;;;;;;;6.53;5.05;;;;;;;-140.79;100.00;63287.88;5012628;28;20069;-54
2022/04/20 01:08:15;;;;;;;6.97;4.90;;;;;;;-140.79;100.00;63287.88;4987794;28;20061;-54
2022/04/20 01:10:40;;;;;;;8.80;5.70;;;;;;;-140.79;100.00;63287.88;5003758;28;20041;-54
2022/04/20 01:13:06;;;;;;;7.65;5.47;;;;;;;-140.79;100.00;63287.88;5006990;28;20052;-54
2022/04/20 01:15:32;;;;;;;7.28;5.22;;;;;;;-140.79;100.00;63287.88;5007368;28;20038;-55
2022/04/20 01:17:57;;;;;;;7.93;5.63;;;;;;;-140.79;100.00;63287.88;5011773;28;20037;-54
2022/04/20 01:20:22;;;;;;;7.78;5.20;;;;;;;-140.79;100.00;63287.88;4987190;28;20030;-54
2022/04/20 01:22:48;;;;;;;8.43;5.03;;;;;;;-140.79;100.00;63287.88;4987358;28;20034;-56
2022/04/20 01:25:13;;;;;;;6.78;4.80;;;;;;;-140.79;100.00;63287.88;4987346;28;20030;-54
2022/04/20 01:27:39;;;;;;;8.20;5.60;;;;;;;-140.79;100.00;63287.88;4987744;28;20468;-54
2022/04/20 01:30:06;;;;;;;7.68;5.20;;;;;;;-140.79;100.00;63287.88;4987157;28;20355;-55
2022/04/20 01:32:31;;;;;;;6.72;4.90;;;;;;;-140.79;100.00;63287.88;4995012;28;20030;-54
2022/04/20 01:34:57;;;;;;;7.15;4.93;;;;;;;-140.79;100.00;63287.88;5004255;28;20038;-54
2022/04/20 01:37:40;;;;;;;7.00;5.25;;;;;;;-140.79;100.00;63287.88;4992971;28;20120;-54
2022/04/20 01:43:27;;;;;;;7.20;5.20;;;;;;;-140.79;100.00;63287.88;4987484;28;20053;-54
2022/04/20 01:45:53;;;;;;;7.28;5.20;;;;;;;-140.79;100.00;63287.88;4996407;28;20042;-54
2022/04/20 01:48:18;;;;;;;6.93;4.60;;;;;;;-140.79;100.00;63287.88;5006487;28;20030;-54
2022/04/20 01:53:28;;;;;;;7.10;4.97;;;;;;;-140.79;100.00;63287.88;5012673;28;20058;-54
2022/04/20 01:55:53;;;;;;;6.78;4.88;;;;;;;-140.79;100.00;63287.88;4986953;28;20038;-54
2022/04/20 01:58:19;;;;;;;6.78;4.70;;;;;;;-140.79;100.00;63287.88;5000034;28;20069;-54
2022/04/20 02:03:48;;;;;;;6.68;4.82;;;;;;;-140.79;100.00;63287.88;5005098;28;20048;-54
2022/04/20 02:06:25;;;;;;;6.55;4.50;;;;;;;-140.79;100.00;63287.88;5006096;28;20033;-54
2022/04/20 02:08:50;;;;;;;6.20;4.28;;;;;;;-140.79;100.00;63287.88;5006281;28;20108;-53
2022/04/20 02:11:16;;;;;;;6.15;4.05;;;;;;;-140.79;100.00;63287.88;5005454;28;20030;-54
2022/04/20 02:13:41;;;;;;;7.18;4.60;;;;;;;-140.79;100.00;63287.88;5004512;28;20033;-54
2022/04/20 02:19:10;;;;;;;6.18;4.72;;;;;;;-140.79;100.00;63287.88;4986182;28;20097;-54
2022/04/20 02:22:13;;;;;;;5.97;4.57;;;;;;;-140.79;100.00;63287.88;4985956;28;20030;-54
2022/04/20 02:24:38;;;;;;;5.63;4.05;;;;;;;-140.79;100.00;63287.88;4986699;28;20035;-55
2022/04/20 02:30:06;;;;;;;5.70;4.10;;;;;;;-140.79;100.00;63287.88;4985778;28;20057;-54
2022/04/20 02:35:44;;;;;;;6.93;4.68;;;;;;;-140.79;100.00;63287.88;4986036;28;20177;-54
2022/04/20 02:38:19;;;;;;;5.30;4.13;;;;;;;-140.79;100.00;63287.88;4985910;28;20039;-54
2022/04/20 02:40:45;;;;;;;5.78;4.10;;;;;;;-140.79;100.00;63287.88;5001915;28;20045;-54
2022/04/20 02:43:10;;;;;;;5.13;3.97;;;;;;;-140.79;100.00;63287.88;5005702;28;20026;-54
2022/04/20 02:45:36;;;;;;;6.43;4.00;;;;;;;-140.79;100.00;63287.88;4997810;28;20050;-54
2022/04/20 02:48:01;;;;;;;6.38;4.25;;;;;;;-140.79;100.00;63287.88;5011888;28;20057;-54
2022/04/20 02:50:30;;;;;;;6.45;4.15;;;;;;;-140.79;100.00;63287.88;5005411;28;20524;-54
2022/04/20 02:52:56;;;;;;;6.03;4.15;;;;;;;-140.79;100.00;63287.88;5005118;28;20026;-54
2022/04/20 02:55:21;;;;;;;6.30;4.43;;;;;;;-140.79;100.00;63287.88;5005600;28;20164;-53
2022/04/20 02:57:47;;;;;;;5.38;4.03;;;;;;;-140.79;100.00;63287.88;4996360;28;20048;-54
2022/04/20 03:00:13;;;;;;;6.75;4.53;;;;;;;-140.79;100.00;63287.88;4985206;28;20425;-53
2022/04/20 03:02:39;;;;;;;6.25;4.63;;;;;;;-140.79;100.00;63287.88;4985495;28;20069;-54
2022/04/20 03:05:05;;;;;;;5.88;4.22;;;;;;;-140.79;100.00;63287.88;5011959;28;20062;-54
2022/04/20 03:07:31;;;;;;;6.35;4.47;;;;;;;-140.79;100.00;63287.88;4986196;28;20029;-53
2022/04/20 03:09:56;;;;;;;5.13;4.10;;;;;;;-140.79;100.00;63287.88;4986721;28;20038;-54
2022/04/20 03:12:22;;;;;;;6.32;4.18;;;;;;;-140.79;100.00;63287.88;4985659;28;20034;-54
2022/04/20 03:14:48;;;;;;;5.20;3.70;;;;;;;-140.79;100.00;63287.88;5000397;28;20036;-53
2022/04/20 03:17:13;;;;;;;5.18;3.85;;;;;;;-140.79;100.00;63287.88;5020151;28;20030;-57
2022/04/20 03:19:38;;;;;;;5.03;3.60;;;;;;;-140.79;100.00;63287.88;5020406;28;20083;-54
2022/04/20 03:22:04;;;;;;;5.43;3.50;;;;;;;-140.79;100.00;63287.88;5016263;28;20033;-53
2022/04/20 03:24:29;;;;;;;5.63;3.78;;;;;;;-140.79;100.00;63287.88;5020558;28;20060;-55
2022/04/20 03:26:55;;;;;;;5.35;4.10;;;;;;;-140.79;100.00;63287.88;5016788;28;20202;-56
2022/04/20 03:29:20;;;;;;;5.20;3.83;;;;;;;-140.79;100.00;63287.88;5019511;28;20489;-56
2022/04/20 03:31:46;;;;;;;5.60;3.50;;;;;;;-140.79;100.00;63287.88;5011364;28;20420;-55
2022/04/20 03:34:12;;;;;;;4.72;3.58;;;;;;;-140.79;100.00;63287.88;5014142;28;20504;-54
2022/04/20 03:36:37;;;;;;;5.47;3.70;;;;;;;-140.79;100.00;63287.88;5018216;28;20029;-55
2022/04/20 03:39:03;;;;;;;5.35;3.90;;;;;;;-140.79;100.00;63287.88;5014781;28;20408;-54
2022/04/20 03:41:28;;;;;;;4.68;3.58;;;;;;;-140.79;100.00;63287.88;5020430;28;20493;-54
2022/04/20 03:43:53;;;;;;;5.25;3.70;;;;;;;-140.79;100.00;63287.88;5016256;28;20029;-54
2022/04/20 03:46:21;;;;;;;4.32;3.30;;;;;;;-140.79;100.00;63287.88;5014222;28;20091;-55
2022/04/20 03:48:46;;;;;;;6.18;3.70;;;;;;;-140.79;100.00;63287.88;5019077;28;20026;-54
2022/04/20 03:51:12;;;;;;;5.72;3.50;;;;;;;-140.79;100.00;63287.88;5018997;28;20762;-54
2022/04/20 03:53:38;;;;;;;5.45;3.97;;;;;;;-140.79;100.00;63287.88;5009510;28;20679;-54
2022/04/20 03:56:04;;;;;;;4.82;3.47;;;;;;;-140.79;100.00;63287.88;4984850;28;20113;-54
2022/04/20 03:58:29;;;;;;;4.88;3.33;;;;;;;-140.79;100.00;63287.88;5007159;28;20820;-55
2022/04/20 04:00:55;;;;;;;5.10;3.55;;;;;;;-140.79;100.00;63287.88;5005869;28;20459;-55
2022/04/20 04:03:20;;;;;;;4.35;3.50;;;;;;;-140.79;100.00;63287.88;5009364;28;20395;-54
2022/04/20 04:05:46;;;;;;;4.53;3.20;;;;;;;-140.79;100.00;63287.88;5002496;28;20574;-54
2022/04/20 04:08:11;;;;;;;5.03;3.55;;;;;;;-140.79;100.00;63287.88;5017123;28;20561;-55
2022/04/20 04:10:36;;;;;;;4.43;3.38;;;;;;;-140.79;100.00;63287.88;5018552;28;20489;-55
2022/04/20 04:13:02;;;;;;;4.85;3.25;;;;;;;-140.79;100.00;63287.88;5012923;28;20042;-55
2022/04/20 04:15:28;;;;;;;3.97;3.10;;;;;;;-140.79;100.00;63287.88;5016925;28;20084;-54
2022/04/20 04:17:59;;;;;;;4.07;2.92;;;;;;;-140.79;100.00;63287.88;5019311;28;20094;-55
2022/04/20 04:20:27;;;;;;;5.05;3.40;;;;;;;-140.79;100.00;63287.88;5018059;28;20393;-55
2022/04/20 04:22:53;;;;;;;4.78;3.47;;;;;;;-140.79;100.00;63287.88;5012707;28;20041;-54
2022/04/20 04:25:19;;;;;;;4.63;3.88;;;;;;;-140.79;100.00;63287.88;5017798;28;20033;-55
2022/04/20 04:27:44;;;;;;;4.47;2.95;;;;;;;-140.79;100.00;63287.88;5023202;28;20481;-55
2022/04/20 04:30:10;;;;;;;4.43;3.35;;;;;;;-140.79;100.00;63287.88;5023985;28;20107;-55
2022/04/20 04:32:35;;;;;;;4.35;3.10;;;;;;;-140.79;100.00;63287.88;5021579;28;20109;-54
2022/04/20 04:35:01;;;;;;;4.35;3.22;;;;;;;-140.79;100.00;63287.88;5016737;28;20437;-55
2022/04/20 04:37:27;;;;;;;4.78;3.50;;;;;;;-140.79;100.00;63287.88;5023346;28;20036;-54
2022/04/20 04:39:52;;;;;;;3.88;3.00;;;;;;;-140.79;100.00;63287.88;5008786;28;20120;-55
2022/04/20 04:42:17;;;;;;;8.35;6.35;;;;;;;-140.79;100.00;63287.88;4990245;28;20104;-55
2022/04/20 04:44:43;;;;;;;6.68;4.93;;;;;;;-140.79;100.00;63287.88;4998139;28;20567;-54
2022/04/20 04:49:52;;;;;;;4.60;3.70;;;;;;;-140.79;100.00;63287.88;5026401;28;20079;-54
2022/04/20 04:52:18;;;;;;;4.82;3.35;;;;;;;-140.79;100.00;63287.88;5026344;28;20037;-55
2022/04/20 04:54:43;;;;;;;5.32;3.38;;;;;;;-140.79;100.00;63287.88;5026600;28;20031;-55
2022/04/20 04:57:09;;;;;;;3.70;3.00;;;;;;;-140.79;100.00;63287.88;5023020;28;20033;-56
2022/04/20 04:59:39;;;;;;;5.00;3.60;;;;;;;-140.79;100.00;63287.88;5012015;28;20144;-54
2022/04/20 05:02:05;;;;;;;4.25;3.10;;;;;;;-140.79;100.00;63287.88;4996299;28;20537;-54
2022/04/20 05:04:32;;;;;;;3.80;2.83;;;;;;;-140.79;100.00;63287.88;5002736;28;20113;-55
2022/04/20 05:06:57;;;;;;;4.70;3.17;;;;;;;-140.79;100.00;63287.88;5010839;28;20060;-58
2022/04/20 05:09:23;;;;;;;4.57;3.17;;;;;;;-140.79;100.00;63287.88;4994981;28;20102;-53
2022/04/20 05:11:49;;;;;;;4.75;3.25;;;;;;;-140.79;100.00;63287.88;5025130;28;20197;-53
2022/04/20 05:14:15;;;;;;;4.45;3.25;;;;;;;-140.79;100.00;63287.88;5002755;28;20034;-54
2022/04/20 05:16:40;;;;;;;5.47;3.50;;;;;;;-140.79;100.00;63287.88;5011863;28;20029;-54
2022/04/20 05:19:06;;;;;;;4.25;3.25;;;;;;;-140.79;100.00;63287.88;5022096;28;20014;-54
2022/04/20 05:21:31;;;;;;;4.63;3.42;;;;;;;-140.79;100.00;63287.88;5021458;28;20037;-54
2022/04/20 05:23:58;;;;;;;5.45;3.28;;;;;;;-140.79;100.00;63287.88;5024058;28;20036;-54
2022/04/20 05:26:28;;;;;;;4.32;3.38;;;;;;;-140.79;100.00;63287.88;5023699;28;20405;-54
2022/04/20 05:28:53;;;;;;;4.45;3.05;;;;;;;-140.79;100.00;63287.88;5022272;28;20018;-55
2022/04/20 05:31:19;;;;;;;4.78;3.10;;;;;;;-140.79;100.00;63287.88;5014026;28;20049;-52
2022/04/20 05:33:44;;;;;;;3.58;2.95;;;;;;;-140.79;100.00;63287.88;5011067;28;20033;-54
2022/04/20 05:36:10;;;;;;;3.95;2.90;;;;;;;-140.79;100.00;63287.88;4995078;28;20501;-56
2022/04/20 05:44:04;;;;;;;4.68;3.08;;;;;;;-140.79;100.00;63287.88;5020324;28;20094;-54
2022/04/20 05:46:32;;;;;;;4.00;3.00;;;;;;;-140.79;100.00;63287.88;5014972;28;20119;-53
2022/04/20 05:48:57;;;;;;;4.38;3.17;;;;;;;-140.79;100.00;63287.88;5021675;28;20037;-55
2022/04/20 05:51:22;;;;;;;4.70;3.00;;;;;;;-140.79;100.00;63287.88;5021362;28;20037;-54
2022/04/20 05:53:48;;;;;;;5.28;2.85;;;;;;;-140.79;100.00;63287.88;5020684;28;20405;-52
2022/04/20 05:56:13;;;;;;;4.65;3.20;;;;;;;-140.79;100.00;63287.88;5023660;28;20026;-52
2022/04/20 05:58:39;;;;;;;5.13;3.20;;;;;;;-140.79;100.00;63287.88;5011903;28;20425;-54
2022/04/20 06:01:04;;;;;;;4.97;3.10;;;;;;;-140.79;100.00;63287.88;5011285;28;20033;-53
2022/04/20 06:03:30;;;;;;;3.80;2.75;;;;;;;-140.79;100.00;63287.88;5021305;28;20036;-54
2022/04/20 06:05:55;;;;;;;3.55;2.80;;;;;;;-140.79;100.00;63287.88;5022714;28;20026;-55
2022/04/20 06:08:21;;;;;;;4.00;3.00;;;;;;;-140.79;100.00;63287.88;5020916;28;20029;-55
2022/04/20 06:10:46;;;;;;;4.95;3.10;;;;;;;-140.79;100.00;63287.88;5018515;28;20544;-55
2022/04/20 06:13:12;;;;;;;4.63;2.80;;;;;;;-140.79;100.00;63287.88;5017927;28;20144;-55
2022/04/20 06:15:38;;;;;;;5.18;3.05;;;;;;;-140.79;100.00;63287.88;5021592;28;20245;-55
2022/04/20 06:18:03;;;;;;;4.38;3.00;;;;;;;-140.79;100.00;63287.88;5011817;28;20038;-55
2022/04/20 06:20:29;;;;;;;5.60;3.38;;;;;;;-140.79;100.00;63287.88;5011144;28;20037;-55
2022/04/20 06:22:55;;;;;;;3.72;3.13;;;;;;;-140.79;100.00;63287.88;5014505;28;20021;-55
2022/04/20 06:25:20;;;;;;;4.32;2.90;;;;;;;-140.79;100.00;63287.88;5019819;28;20022;-55
2022/04/20 06:27:45;;;;;;;4.22;3.20;;;;;;;-140.79;100.00;63287.88;5019934;28;20029;-56
2022/04/20 06:30:23;;;;;;;4.38;3.00;;;;;;;-140.79;100.00;63287.88;5013359;28;20112;-55
2022/04/20 06:32:48;;;;;;;5.78;3.38;;;;;;;-140.79;100.00;63287.88;5019528;28;20036;-55
2022/04/20 06:35:14;;;;;;;4.97;3.08;;;;;;;-140.79;100.00;63287.88;5005269;28;20069;-55
2022/04/20 06:37:39;;;;;;;4.85;3.38;;;;;;;-140.79;100.00;63287.88;5018518;28;20425;-56
2022/04/20 06:40:05;;;;;;;5.00;3.05;;;;;;;-140.79;100.00;63287.88;5016337;28;20829;-55
2022/04/20 06:42:31;;;;;;;5.85;3.40;;;;;;;-140.79;100.00;63287.88;5024742;28;20477;-55
2022/04/20 06:44:56;;;;;;;5.22;3.35;;;;;;;-140.79;100.00;63287.88;5019869;28;20025;-55
2022/04/20 06:47:22;;;;;;;5.47;3.10;;;;;;;-140.79;100.00;63287.88;5014395;28;20034;-56
2022/04/20 06:49:47;;;;;;;4.72;3.13;;;;;;;-140.79;100.00;63287.88;5018942;28;20093;-56
2022/04/20 07:00:25;;;;;;;3.65;3.00;;;;;;;-140.79;100.00;63287.88;5019457;28;20092;-56
2022/04/20 07:03:04;;;;;;;5.75;3.00;;;;;;;-140.79;100.00;63287.88;5006983;28;20057;-56
2022/04/20 07:05:29;;;;;;;4.65;3.08;;;;;;;-140.79;100.00;63287.88;4994280;28;20038;-56
2022/04/20 07:07:56;;;;;;;3.90;3.20;;;;;;;-140.79;100.00;63287.88;5009843;28;20811;-56
2022/04/20 07:10:21;;;;;;;4.57;3.10;;;;;;;-140.79;100.00;63287.88;5005442;28;20029;-56
2022/04/20 07:12:47;;;;;;;4.30;3.17;;;;;;;-140.79;100.00;63287.88;4989431;28;20033;-56
2022/04/20 07:15:12;;;;;;;4.90;3.10;;;;;;;-140.79;100.00;63287.88;5005070;28;20030;-56
2022/04/20 07:17:38;;;;;;;5.10;3.30;;;;;;;-140.79;100.00;63287.88;5005775;28;20022;-56
2022/04/20 07:20:04;;;;;;;4.35;3.28;;;;;;;-140.79;100.00;63287.88;5009854;28;20022;-56
2022/04/20 07:22:29;;;;;;;4.85;3.42;;;;;;;-140.79;100.00;63287.88;5005124;28;20389;-56
2022/04/20 07:24:54;;;;;;;6.57;3.42;;;;;;;-140.79;100.00;63287.88;5001527;28;20087;-56
2022/04/20 07:27:20;;;;;;;4.07;3.17;;;;;;;-140.79;100.00;63287.88;5002644;28;20053;-56
2022/04/20 07:29:45;;;;;;;4.70;3.40;;;;;;;-140.79;100.00;63287.88;5002648;28;20034;-56
2022/04/20 07:32:11;;;;;;;4.85;3.05;;;;;;;-140.79;100.00;63287.88;4996275;28;20096;-56
2022/04/20 07:34:36;;;;;;;4.38;3.25;;;;;;;-140.79;100.00;63287.88;5001929;28;20036;-55
2022/04/20 07:37:03;;;;;;;4.22;3.15;;;;;;;-140.79;100.00;63287.88;5000043;28;20049;-56
2022/04/20 07:39:28;;;;;;;3.67;2.80;;;;;;;-140.79;100.00;63287.88;5004150;28;20017;-56
2022/04/20 07:41:54;;;;;;;5.40;3.60;;;;;;;-140.79;100.00;63287.88;5014780;28;20526;-55
2022/04/20 07:44:19;;;;;;;4.07;3.00;;;;;;;-140.79;100.00;63287.88;5007430;28;20382;-56
2022/04/20 07:46:45;;;;;;;5.50;3.30;;;;;;;-140.79;100.00;63287.88;5010103;28;20502;-56
2022/04/20 07:51:54;;;;;;;4.30;3.35;;;;;;;-140.79;100.00;63287.88;5005977;28;20041;-57
2022/04/20 07:54:20;;;;;;;5.18;3.28;;;;;;;-140.79;100.00;63287.88;5003710;28;20034;-55
2022/04/20 07:56:46;;;;;;;4.43;3.60;;;;;;;-140.79;100.00;63287.88;5011441;28;20064;-56
2022/04/20 07:59:11;;;;;;;4.90;3.42;;;;;;;-140.79;100.00;63287.88;5001782;28;20026;-56
2022/04/20 08:01:37;;;;;;;4.55;3.13;;;;;;;-140.79;100.00;63287.88;4999215;28;20422;-56
2022/04/20 08:04:02;;;;;;;4.10;2.95;;;;;;;-140.79;100.00;63287.88;4988936;28;20504;-55
2022/04/20 08:06:30;;;;;;;4.05;2.92;;;;;;;-140.79;100.00;63287.88;5004302;28;20042;-55
2022/04/20 08:08:56;;;;;;;4.88;3.38;;;;;;;-140.79;100.00;63287.88;5009248;28;20041;-55
2022/04/20 08:11:21;;;;;;;5.97;3.33;;;;;;;-140.79;100.00;63287.88;5005370;28;20034;-56
2022/04/20 08:16:30;;;;;;;4.25;3.33;;;;;;;-140.79;100.00;63287.88;5004166;28;20579;-56
2022/04/20 08:18:56;;;;;;;4.47;3.30;;;;;;;-140.79;100.00;63287.88;5005882;28;20026;-53
2022/04/20 08:21:21;;;;;;;4.18;3.03;;;;;;;-140.79;100.00;63287.88;5005655;28;20022;-55
2022/04/20 08:23:47;;;;;;;5.18;3.30;;;;;;;-140.79;100.00;63287.88;5022011;28;20079;-55
2022/04/20 08:26:13;;;;;;;4.38;3.42;;;;;;;-140.79;100.00;63287.88;5011640;28;20033;-55
2022/04/20 08:28:39;;;;;;;5.30;3.78;;;;;;;-140.79;100.00;63287.88;5007387;28;20049;-55
2022/04/20 08:31:04;;;;;;;4.45;3.40;;;;;;;-140.79;100.00;63287.88;5004535;28;20044;-56
2022/04/20 08:33:30;;;;;;;6.13;4.00;;;;;;;-140.79;100.00;63287.88;5004784;28;20026;-55
2022/04/20 08:35:55;;;;;;;4.88;3.85;;;;;;;-140.79;100.00;63287.88;4988365;28;20031;-56
2022/04/20 08:38:21;;;;;;;5.43;3.72;;;;;;;-140.79;100.00;63287.88;5004964;28;20029;-56
2022/04/20 08:40:47;;;;;;;5.72;3.88;;;;;;;-140.79;100.00;63287.88;5008354;28;20547;-56
2022/04/20 08:43:12;;;;;;;4.78;3.65;;;;;;;-140.79;100.00;63287.88;5003719;28;20030;-55
2022/04/20 08:45:39;;;;;;;5.00;3.72;;;;;;;-140.79;100.00;63287.88;4999534;28;20520;-55
2022/04/20 08:48:06;;;;;;;5.50;3.53;;;;;;;-140.79;100.00;63287.88;5018583;28;20029;-56
2022/04/20 08:50:31;;;;;;;5.25;3.67;;;;;;;-140.79;100.00;63287.88;5005347;28;20045;-55
2022/04/20 08:52:58;;;;;;;5.28;3.40;;;;;;;-140.79;100.00;63287.88;5005976;28;20433;-55
2022/04/20 08:55:23;;;;;;;4.63;3.50;;;;;;;-140.79;100.00;63287.88;4988063;28;20056;-55
2022/04/20 08:57:49;;;;;;;4.82;3.35;;;;;;;-140.79;100.00;63287.88;5005770;28;20029;-55
2022/04/20 09:00:27;;;;;;;11.23;9.23;;;;;;;-140.79;100.00;63287.88;5021214;28;20746;-56
2022/04/20 09:02:56;;;;;;;6.20;5.22;;;;;;;-140.79;100.00;63287.88;5015955;28;20033;-55
2022/04/20 09:05:22;;;;;;;6.40;4.30;;;;;;;-140.79;100.00;63287.88;5034134;28;20130;-54
2022/04/20 09:07:47;;;;;;;6.38;3.90;;;;;;;-140.79;100.00;63287.88;5023721;28;20041;-55
2022/04/20 09:10:13;;;;;;;12.02;10.63;;;;;;;-140.79;100.00;63287.88;5017896;28;20241;-56
2022/04/20 09:12:42;;;;;;;6.80;5.65;;;;;;;-140.79;100.00;63287.88;5015716;28;20084;-56
2022/04/20 09:15:09;;;;;;;5.88;4.45;;;;;;;-140.79;100.00;63287.88;5012970;28;20073;-56
2022/04/20 09:17:47;;;;;;;5.90;3.80;;;;;;;-140.79;100.00;63287.88;5013923;28;20022;-56
2022/04/20 09:20:16;;;;;;;5.35;3.88;;;;;;;-140.79;100.00;63287.88;5020674;28;20025;-56
2022/04/20 09:22:42;;;;;;;5.10;3.88;;;;;;;-140.79;100.00;63287.88;5021651;28;20021;-57
2022/04/20 09:25:11;;;;;;;5.60;3.95;;;;;;;-140.79;100.00;63287.88;5000662;28;20045;-55
2022/04/20 09:27:41;;;;;;;6.40;4.30;;;;;;;-140.79;100.00;63287.88;5019455;28;20041;-57
2022/04/20 09:30:10;;;;;;;;;;;;;;;-140.79;100.00;63287.88;5022128;28;20038;-57
2022/04/20 09:32:37;;;;;;;6.28;4.00;;;;;;;-140.79;100.00;63287.88;5010615;28;19917;-61
2022/04/20 09:35:06;;;;;;;5.97;3.88;;;;;;;-140.79;100.00;63287.88;5020272;28;20037;-56
2022/04/20 09:37:32;;;;;;;5.63;3.80;;;;;;;-140.79;100.00;63287.88;4987352;28;20481;-60
2022/04/20 09:39:58;;;;;;;6.03;4.07;;;;;;;-140.79;100.00;63287.88;5002438;28;20271;-57
2022/04/20 09:42:24;;;;;;;4.68;3.97;;;;;;;-140.79;100.00;63287.88;5011543;28;20489;-56
2022/04/20 09:44:59;;;;;;;4.72;3.78;;;;;;;-140.79;100.00;63287.88;4987024;28;20045;-55
2022/04/20 09:50:11;;;;;;;4.88;3.80;;;;;;;-140.79;100.00;63287.88;5022095;28;20048;-53
2022/04/20 09:52:49;;;;;;;5.03;4.10;;;;;;;-140.79;100.00;63287.88;5022447;28;20033;-55
2022/04/20 09:55:35;;;;;;;4.97;3.72;;;;;;;-140.79;100.00;63287.88;5018020;28;20106;-58
2022/04/20 09:58:13;;;;;;;4.70;3.95;;;;;;;-140.79;100.00;63287.88;5011559;28;20088;-56
2022/04/20 10:00:42;;;;;;;5.18;3.72;;;;;;;-140.79;100.00;63287.88;5015505;28;20035;-53
2022/04/20 10:03:07;;;;;;;5.40;3.83;;;;;;;-140.79;100.00;63287.88;5014143;28;20097;-54
2022/04/20 10:05:34;;;;;;;5.28;3.95;;;;;;;-140.79;100.00;63287.88;4986802;28;20085;-53
2022/04/20 10:08:00;;;;;;;5.65;4.18;;;;;;;-140.79;100.00;63287.88;4995677;28;20163;-54
2022/04/20 10:10:27;;;;;;;5.13;4.00;;;;;;;-140.79;100.00;63287.88;5008474;28;20519;-54
2022/04/20 10:12:54;;;;;;;4.80;3.85;;;;;;;-140.79;100.00;63287.88;5001421;28;20144;-54
2022/04/20 10:18:04;;;;;;;4.63;3.78;;;;;;;-140.79;100.00;63287.88;4990092;28;20088;-53
2022/04/20 10:20:29;;;;;;;4.60;3.80;;;;;;;-140.79;100.00;63287.88;5006004;28;20034;-54
2022/04/20 10:22:55;;;;;;;5.47;4.20;;;;;;;-140.79;100.00;63287.88;5020134;28;20034;-53
2022/04/20 10:25:20;;;;;;;4.45;3.60;;;;;;;-140.79;100.00;63287.88;5020304;28;20410;-53
2022/04/20 10:27:58;;;;;;;5.45;3.72;;;;;;;-140.79;100.00;63287.88;5021084;28;20109;-53
2022/04/20 10:30:38;;;;;;;4.70;3.65;;;;;;;-140.79;100.00;63287.88;4993248;28;20061;-54
2022/04/20 10:33:13;;;;;;;5.25;4.07;;;;;;;-140.79;100.00;63287.88;5006785;28;20051;-53
2022/04/20 10:35:55;;;;;;;4.65;4.03;;;;;;;-140.79;100.00;63287.88;5021088;28;20163;-53
2022/04/20 10:38:21;;;;;;;4.85;4.05;;;;;;;-140.79;100.00;63287.88;5017448;28;20026;-53
2022/04/20 10:41:05;;;;;;;5.85;4.35;;;;;;;-140.79;100.00;63287.88;5020600;28;20021;-53
2022/04/20 10:43:31;;;;;;;4.35;3.80;;;;;;;-140.79;100.00;63287.88;4988091;28;20589;-53
2022/04/20 10:46:16;;;;;;;4.95;3.97;;;;;;;-140.79;100.00;63287.88;5007363;28;20026;-63
2022/04/20 10:48:45;;;;;;;6.15;4.63;;;;;;;-140.79;100.00;63287.88;5021868;28;20052;-56
2022/04/20 10:51:14;;;;;;;5.43;4.05;;;;;;;-140.79;100.00;63287.88;5013555;28;20045;-56
2022/04/20 10:53:44;;;;;;;6.90;4.03;;;;;;;-140.79;100.00;63287.88;5016764;28;20037;-55
2022/04/20 10:56:09;;;;;;;5.25;4.10;;;;;;;-140.79;100.00;63287.88;5004524;28;20472;-57
2022/04/20 10:58:35;;;;;;;4.45;3.72;;;;;;;-140.79;100.00;63287.88;5001222;28;20038;-54
2022/04/20 11:01:06;;;;;;;5.45;4.63;;;;;;;-140.79;100.00;63287.88;5026660;28;20048;-55
2022/04/20 11:03:51;;;;;;;5.00;3.80;;;;;;;-140.79;100.00;63287.88;5021739;28;20034;-55
2022/04/20 11:06:16;;;;;;;5.50;4.05;;;;;;;-140.79;100.00;63287.88;5023275;28;20040;-54
2022/04/20 11:08:42;;;;;;;4.95;4.00;;;;;;;-140.79;100.00;63287.88;5002426;28;20037;-55
2022/04/20 11:19:54;;;;;;;5.38;4.38;;;;;;;-140.79;100.00;63287.88;5018934;28;20087;-57
2022/04/20 11:22:20;;;;;;;5.20;4.07;;;;;;;-140.79;100.00;63287.88;5018698;28;20044;-57
2022/04/20 11:24:45;;;;;;;5.28;3.90;;;;;;;-140.79;100.00;63287.88;5021337;28;20029;-56
2022/04/20 11:27:11;;;;;;;4.72;3.90;;;;;;;-140.79;100.00;63287.88;5018406;28;20103;-56
2022/04/20 11:29:37;;;;;;;5.82;4.40;;;;;;;-140.79;100.00;63287.88;5019510;28;20053;-55
2022/04/20 11:32:04;;;;;;;5.03;4.10;;;;;;;-140.79;100.00;63287.88;5002526;28;20030;-56
2022/04/20 11:34:33;;;;;;;5.28;4.10;;;;;;;-140.79;100.00;63287.88;5014663;28;20529;-56
2022/04/20 11:37:00;;;;;;;5.57;4.38;;;;;;;-140.79;100.00;63287.88;5016452;28;20022;-55
2022/04/20 11:39:26;;;;;;;5.97;4.50;;;;;;;-140.79;100.00;63287.88;5027211;28;20068;-56
2022/04/20 11:41:53;;;;;;;5.32;4.25;;;;;;;-140.79;100.00;63287.88;5027690;28;20523;-55
2022/04/20 11:44:28;;;;;;;5.88;4.70;;;;;;;-140.79;100.00;63287.88;5021945;28;20423;-56
2022/04/20 11:47:01;;;;;;;6.70;4.55;;;;;;;-140.79;100.00;63287.88;5022004;28;20032;-56
2022/04/20 11:49:36;;;;;;;5.75;3.92;;;;;;;-140.79;100.00;63287.88;5026239;28;20164;-55
2022/04/20 11:52:06;;;;;;;5.22;4.35;;;;;;;-140.79;100.00;63287.88;5027396;28;20028;-55
2022/04/20 11:54:32;;;;;;;5.35;4.32;;;;;;;-140.79;100.00;63287.88;5024789;28;20025;-57
2022/04/20 11:56:58;;;;;;;5.15;4.15;;;;;;;-140.79;100.00;63287.88;5022137;28;20515;-62
2022/04/20 11:59:24;;;;;;;5.45;4.07;;;;;;;-140.79;100.00;63287.88;5024456;28;20033;-60
2022/04/20 12:01:50;;;;;;;5.53;4.32;;;;;;;-140.79;100.00;63287.88;5011739;28;20038;-59